Cutral-Co, Argentina
Current Conditions -  °F | °C
As of 10:00 AM on Thursday 23 Oct 2014 (Local Time) from SAZN Reporting Station
Clear Clear  
Wind Chill: 68°   Ceiling: Unl
Heat Index: 68°   Visibility: 6mi
Dew Point: 46°   Wind: 2mph
Humidity: 46%   Direction: 200°SSW
Pressure: 30.03"   Gusts: NA
Location:  38.93°S, 69.23°W
Report Text: SAZN 231300Z 20002KT CAVOK 20/08 Q1017
Loading
Personal Weather Stations






























Interactive Weather Map
Tropical Storm Tracking
New forecast layout! Learn more

10-Day Weather Forecast

Advertisements
Track Severe Weather on mobile